Time;durP1;ratioP1;P1;durP2;ratioP2;P2;SDS_P1;SDS_P2;PMS_P1;PMS_P2;Temp;Humidity;BMP_temperature;BMP_pressure;BME280_temperature;BME280_humidity;BME280_pressure;Samples;Min_cycle;Max_cycle;Signal;HPM_P1;HPM_P2
2021/01/27 00:00:35;;;;;;;14.15;12.65;;;2.30;75.90;3.30;100751.00;;;;5034341;28;20510;-84
2021/01/27 00:03:03;;;;;;;14.63;13.13;;;2.30;76.20;3.30;100756.00;;;;5044434;28;20474;-83
2021/01/27 00:05:34;;;;;;;17.63;13.77;;;2.30;76.40;3.30;100750.00;;;;5041334;28;20526;-83
2021/01/27 00:08:02;;;;;;;17.03;13.90;;;2.30;76.70;3.20;100710.00;;;;5040715;28;20461;-84
2021/01/27 00:10:31;;;;;;;15.50;13.90;;;2.20;76.70;3.10;66939.00;;;;5037070;28;20427;-83
2021/01/27 00:12:59;;;;;;;17.65;14.45;;;2.10;77.00;3.20;100733.00;;;;5059506;28;20518;-83
2021/01/27 00:15:30;;;;;;;16.87;15.20;;;2.20;77.40;52.70;157979.00;;;;5041018;28;20476;-82
2021/01/27 00:17:58;;;;;;;17.40;15.60;;;2.20;77.30;3.10;100728.00;;;;5040003;28;20438;-82
2021/01/27 00:20:28;;;;;;;17.55;15.75;;;2.20;77.50;3.30;100741.00;;;;5029982;28;20428;-83
2021/01/27 00:22:58;;;;;;;16.75;14.85;;;2.20;77.60;3.30;100729.00;;;;5036067;28;20431;-83
2021/01/27 00:25:30;;;;;;;17.20;15.13;;;2.20;77.80;3.40;100733.00;;;;5044531;28;20425;-81
2021/01/27 00:28:00;;;;;;;17.33;15.10;;;2.20;77.70;3.30;100733.00;;;;5033698;28;20525;-82
2021/01/27 00:30:30;;;;;;;18.05;15.90;;;2.10;77.70;3.20;100740.00;;;;5032108;28;20525;-82
2021/01/27 00:32:58;;;;;;;17.65;15.85;;;2.10;77.60;3.10;66942.00;;;;5027923;28;20496;-81
2021/01/27 00:35:29;;;;;;;17.70;15.90;;;2.20;77.40;3.10;100708.00;;;;5028357;28;20918;-84
2021/01/27 00:37:59;;;;;;;18.20;16.30;;;2.10;77.40;3.20;100723.00;;;;5029045;28;20832;-83
2021/01/27 00:40:27;;;;;;;17.63;15.70;;;2.20;77.60;3.20;100732.00;;;;5045422;28;20419;-82
2021/01/27 00:42:54;;;;;;;18.70;15.88;;;2.10;77.30;3.20;100709.00;;;;5028842;28;20777;-83
2021/01/27 00:45:22;;;;;;;18.77;16.40;;;2.20;77.30;3.20;100728.00;;;;5029562;28;20426;-80
2021/01/27 00:47:50;;;;;;;17.98;16.17;;;2.20;77.10;3.10;100712.00;;;;5037727;28;20427;-81
2021/01/27 00:50:18;;;;;;;17.27;15.57;;;2.20;76.70;3.00;100712.00;;;;5036299;28;20422;-83
2021/01/27 00:52:51;;;;;;;18.45;16.55;;;2.10;76.90;3.10;100731.00;;;;5035978;28;20432;-84
2021/01/27 00:55:25;;;;;;;18.33;16.38;;;2.10;77.10;3.00;100714.00;;;;5043699;28;20414;-80
2021/01/27 00:57:54;;;;;;;19.35;17.35;;;2.00;77.10;3.00;100703.00;;;;5029345;28;20497;-80
2021/01/27 01:00:26;;;;;;;19.42;17.33;;;2.10;77.20;3.00;100706.00;;;;5029367;28;20445;-81
2021/01/27 01:02:56;;;;;;;19.50;17.50;;;2.10;77.20;3.00;100717.00;;;;5045632;28;20923;-82
2021/01/27 01:05:28;;;;;;;20.35;16.30;;;2.00;77.10;3.00;66927.00;;;;5053729;28;20413;-85
2021/01/27 01:07:56;;;;;;;19.15;16.45;;;2.00;77.20;3.00;66921.00;;;;5036635;28;20428;-84
2021/01/27 01:10:25;;;;;;;20.90;17.10;;;2.00;77.10;217.30;157951.00;;;;5037461;28;20422;-83
2021/01/27 01:12:54;;;;;;;18.10;16.20;;;2.00;76.90;3.10;66912.00;;;;5033542;28;20468;-85
2021/01/27 01:15:28;;;;;;;18.73;16.83;;;2.00;77.00;3.00;66934.00;;;;5022993;28;20445;-83
2021/01/27 01:17:57;;;;;;;18.42;16.55;;;2.00;77.60;217.30;157941.00;;;;5032288;28;20453;-84
2021/01/27 01:20:25;;;;;;;18.75;16.65;;;2.00;76.80;217.30;157918.00;;;;5031039;28;20520;-84
2021/01/27 01:22:55;;;;;;;18.52;16.35;;;2.00;76.80;52.70;157935.00;;;;5024813;28;20908;-85
2021/01/27 01:25:25;;;;;;;18.17;16.30;;;2.00;76.90;2.90;100692.00;;;;5038960;28;20461;-85
2021/01/27 01:27:53;;;;;;;19.00;17.00;;;2.00;77.10;2.90;100699.00;;;;5028763;28;20431;-85
2021/01/27 01:30:26;;;;;;;18.60;16.63;;;1.90;77.30;2.90;100649.00;;;;5039590;28;21042;-84
2021/01/27 01:32:56;;;;;;;18.45;16.15;;;1.90;77.30;3.00;66909.00;;;;5052159;28;20411;-84
2021/01/27 01:35:24;;;;;;;18.67;16.63;;;1.90;77.20;2.90;100688.00;;;;5052798;28;20440;-85
2021/01/27 01:37:52;;;;;;;17.92;15.90;;;1.90;77.30;3.00;100688.00;;;;5033750;28;20966;-85
2021/01/27 01:40:24;;;;;;;18.00;16.10;;;1.90;77.30;3.00;100669.00;;;;5039960;28;21506;-83
2021/01/27 01:43:06;;;;;;;19.40;16.40;;;1.90;77.20;3.00;100698.00;;;;5027234;28;20679;-83
2021/01/27 01:45:38;;;;;;;18.25;16.35;;;2.00;77.00;3.00;100681.00;;;;5034983;28;20586;-84
2021/01/27 01:48:22;;;;;;;17.10;15.30;;;1.90;77.10;52.70;157979.00;;;;5032882;28;20465;-84
2021/01/27 01:50:53;;;;;;;17.88;16.08;;;1.90;77.00;3.10;66934.00;;;;5035472;28;20462;-83
2021/01/27 01:53:22;;;;;;;18.17;15.50;;;2.00;77.10;52.70;157967.00;;;;5033403;28;20423;-84
2021/01/27 01:55:53;;;;;;;17.77;16.08;;;2.00;76.70;3.00;100661.00;;;;5040831;28;20458;-84
2021/01/27 01:58:21;;;;;;;16.20;14.50;;;2.00;76.70;3.10;100676.00;;;;5057114;28;20508;-84
2021/01/27 02:00:55;;;;;;;17.38;15.50;;;2.00;76.50;3.00;66923.00;;;;5032706;28;20422;-82
2021/01/27 02:03:23;;;;;;;16.88;15.18;;;2.10;76.40;3.00;100668.00;;;;5029932;28;20434;-83
2021/01/27 02:05:51;;;;;;;16.83;15.02;;;2.00;76.10;3.10;100665.00;;;;5030269;28;20432;-84
2021/01/27 02:08:19;;;;;;;16.30;14.60;;;2.00;76.90;3.10;100670.00;;;;5030348;28;20453;-82
2021/01/27 02:10:47;;;;;;;15.50;13.90;;;2.00;76.20;3.10;100664.00;;;;5030608;28;20531;-84
2021/01/27 02:13:51;;;;;;;16.53;14.50;;;2.00;75.90;3.10;100676.00;;;;5024280;28;20497;-83
2021/01/27 02:16:34;;;;;;;17.67;15.80;;;2.00;76.40;3.20;100666.00;;;;5030270;28;21089;-84
2021/01/27 02:19:49;;;;;;;16.60;14.40;;;2.00;76.20;3.00;100671.00;;;;5024771;28;20427;-84
2021/01/27 02:22:43;;;;;;;15.63;13.90;;;2.00;76.10;3.00;100673.00;;;;5029221;28;20438;-84
2021/01/27 02:25:53;;;;;;;16.13;14.02;;;1.90;76.20;3.00;100670.00;;;;5019932;28;20510;-84
2021/01/27 02:28:50;;;;;;;15.65;14.00;;;1.90;76.40;2.90;100679.00;;;;5033587;28;20534;-83
2021/01/27 02:31:27;;;;;;;15.73;14.10;;;1.90;77.00;3.00;100675.00;;;;5050473;28;20497;-83
2021/01/27 02:34:50;;;;;;;16.33;14.15;;;1.90;76.70;3.00;100660.00;;;;5069546;28;20419;-83
2021/01/27 02:37:22;;;;;;;14.98;12.30;;;2.00;76.20;3.10;100662.00;;;;5051542;28;20431;-83
2021/01/27 02:39:57;;;;;;;13.95;12.45;;;2.00;76.70;3.10;100671.00;;;;5040125;28;20485;-84
2021/01/27 02:42:33;;;;;;;13.98;12.00;;;2.00;76.10;3.10;100674.00;;;;5041824;28;20442;-83
2021/01/27 02:45:09;;;;;;;14.27;11.40;;;2.00;75.30;3.00;100674.00;;;;5032849;28;20501;-84
2021/01/27 02:47:48;;;;;;;13.70;12.30;;;2.00;75.00;3.00;100667.00;;;;5025039;28;20487;-84
2021/01/27 02:50:24;;;;;;;14.65;12.00;;;2.10;74.90;217.30;157983.00;;;;5031298;28;20780;-84
2021/01/27 02:52:57;;;;;;;13.43;12.02;;;2.10;75.10;3.20;100669.00;;;;5021972;28;20440;-84
2021/01/27 02:55:32;;;;;;;13.93;12.43;;;2.10;74.90;3.20;66955.00;;;;5033631;28;20423;-84
2021/01/27 02:58:07;;;;;;;14.13;12.30;;;2.20;74.90;3.20;100671.00;;;;5037013;28;20438;-84
2021/01/27 03:00:39;;;;;;;14.02;12.52;;;2.10;74.90;3.20;100664.00;;;;5032101;28;20578;-84
2021/01/27 03:03:15;;;;;;;14.10;11.67;;;2.10;74.60;3.20;100653.00;;;;5031702;28;20535;-84
2021/01/27 03:05:48;;;;;;;13.95;11.95;;;2.10;74.80;3.20;100665.00;;;;5031253;28;20423;-84
2021/01/27 03:08:19;;;;;;;14.07;10.90;;;2.20;75.20;3.20;100647.00;;;;5028985;28;20856;-83
2021/01/27 03:10:58;;;;;;;13.35;11.35;;;2.10;74.60;3.10;100652.00;;;;5022903;28;20943;-84
2021/01/27 03:13:26;;;;;;;13.52;11.48;;;2.10;74.60;3.20;100644.00;;;;5030462;28;20484;-84
2021/01/27 03:15:58;;;;;;;13.70;11.55;;;2.10;74.70;3.20;100652.00;;;;5029588;28;20481;-83
2021/01/27 03:18:30;;;;;;;14.87;11.73;;;2.10;74.30;3.20;100626.00;;;;5032011;28;20513;-84
2021/01/27 03:21:05;;;;;;;12.50;11.30;;;2.10;74.30;3.20;100635.00;;;;5024565;28;20576;-84
2021/01/27 03:23:40;;;;;;;14.70;10.77;;;2.10;73.90;3.20;100622.00;;;;5032683;28;20455;-84
2021/01/27 03:26:17;;;;;;;13.07;10.20;;;2.10;74.10;3.20;100614.00;;;;5039227;28;21029;-82
2021/01/27 03:28:54;;;;;;;11.88;10.40;;;2.10;73.70;3.20;100614.00;;;;5045198;28;20435;-84
2021/01/27 03:31:22;;;;;;;12.15;10.70;;;2.20;73.60;3.20;100616.00;;;;5061183;28;20428;-84
2021/01/27 03:33:58;;;;;;;11.13;9.93;;;2.10;73.30;3.20;100612.00;;;;5034055;28;20535;-84
2021/01/27 03:36:33;;;;;;;12.35;9.15;;;2.10;73.40;3.30;66976.00;;;;5062381;28;20498;-84
2021/01/27 03:39:03;;;;;;;10.60;9.43;;;2.10;73.30;3.30;100603.00;;;;5045155;28;20550;-84
2021/01/27 03:41:35;;;;;;;10.65;9.50;;;2.10;73.10;3.30;100603.00;;;;5037914;28;20481;-83
2021/01/27 03:44:09;;;;;;;12.23;9.77;;;2.10;73.20;3.30;100590.00;;;;5038395;28;20419;-83
2021/01/27 03:46:44;;;;;;;11.35;9.73;;;2.10;72.90;3.30;66939.00;;;;5033336;28;21161;-84
2021/01/27 03:49:17;;;;;;;12.85;10.07;;;2.10;72.80;3.40;100598.00;;;;5042114;28;20427;-84
2021/01/27 03:51:53;;;;;;;11.60;9.80;;;2.30;73.00;3.30;100569.00;;;;5039228;28;20515;-83
2021/01/27 03:54:21;;;;;;;11.32;10.10;;;2.10;72.30;3.30;100594.00;;;;5043113;28;20426;-84
2021/01/27 03:56:53;;;;;;;12.50;10.30;;;2.10;72.70;3.30;100564.00;;;;5043938;28;20454;-84
2021/01/27 03:59:20;;;;;;;13.60;9.63;;;2.10;72.90;3.20;66966.00;;;;5044741;28;20427;-83
2021/01/27 04:01:50;;;;;;;11.50;9.60;;;2.10;72.70;3.20;100578.00;;;;5064437;28;20422;-83
2021/01/27 04:04:19;;;;;;;11.85;8.40;;;2.00;72.40;3.10;100589.00;;;;5048522;28;20438;-84
2021/01/27 04:06:48;;;;;;;11.75;9.60;;;2.00;72.90;3.10;100564.00;;;;5050343;28;20411;-84
2021/01/27 04:09:16;;;;;;;11.52;9.50;;;2.00;73.00;3.00;100551.00;;;;5034145;28;20458;-83
2021/01/27 04:11:43;;;;;;;11.80;8.75;;;2.00;72.70;3.10;100559.00;;;;5027557;28;20422;-85
2021/01/27 04:14:11;;;;;;;10.93;8.70;;;2.00;72.90;3.00;100564.00;;;;5030790;28;20522;-85
2021/01/27 04:16:38;;;;;;;9.80;8.80;;;2.00;73.20;3.00;100567.00;;;;5026416;28;20450;-85
2021/01/27 04:19:07;;;;;;;10.77;9.25;;;2.00;72.80;3.00;100560.00;;;;5035709;28;20419;-85
2021/01/27 04:21:35;;;;;;;13.10;9.70;;;2.00;72.70;3.10;100547.00;;;;5035890;28;20455;-84
2021/01/27 04:24:05;;;;;;;10.98;9.25;;;2.00;73.20;3.00;100558.00;;;;5039585;28;20477;-83
2021/01/27 04:26:35;;;;;;;12.18;8.98;;;2.00;72.80;3.10;100564.00;;;;5062345;28;20427;-82
2021/01/27 04:29:03;;;;;;;9.80;8.80;;;2.00;72.80;3.10;100541.00;;;;5043014;28;20445;-82
2021/01/27 04:31:31;;;;;;;9.30;8.27;;;2.00;72.10;3.10;100544.00;;;;5053798;28;20418;-82
2021/01/27 04:33:59;;;;;;;8.90;8.00;;;2.00;72.10;3.10;100534.00;;;;5052421;28;20415;-83
2021/01/27 04:36:29;;;;;;;10.32;8.48;;;2.00;72.10;3.10;100519.00;;;;5050622;28;20421;-84
2021/01/27 04:38:56;;;;;;;10.75;8.32;;;2.00;72.10;3.10;100539.00;;;;5043079;28;20570;-84
2021/01/27 04:41:24;;;;;;;11.68;8.85;;;2.00;72.10;3.10;100541.00;;;;5036183;28;20423;-84
2021/01/27 04:43:53;;;;;;;10.40;8.07;;;2.00;72.10;3.20;100525.00;;;;5032952;28;20492;-84
2021/01/27 04:46:25;;;;;;;10.57;8.30;;;2.00;72.10;3.10;100534.00;;;;5038272;28;20437;-83
2021/01/27 04:49:01;;;;;;;9.68;8.30;;;2.10;72.20;3.10;100408.00;;;;5049056;28;20490;-83
2021/01/27 04:51:39;;;;;;;12.15;9.13;;;2.00;72.10;3.10;100541.00;;;;5058996;28;20795;-83
2021/01/27 04:54:24;;;;;;;11.90;8.90;;;2.00;72.10;3.10;100515.00;;;;5039136;28;20430;-84
2021/01/27 04:57:19;;;;;;;10.70;8.48;;;2.00;72.40;3.10;100514.00;;;;5043071;28;20406;-84
2021/01/27 05:00:15;;;;;;;11.20;8.77;;;2.00;72.10;217.30;157935.00;;;;5052661;28;20477;-83
2021/01/27 05:03:18;;;;;;;13.27;9.15;;;2.00;72.10;3.10;100524.00;;;;5048906;28;20445;-83
2021/01/27 05:05:53;;;;;;;12.35;8.52;;;2.00;72.40;3.10;100498.00;;;;5054212;28;20453;-82
2021/01/27 05:08:25;;;;;;;10.63;8.30;;;2.00;72.10;3.10;66942.00;;;;5055841;28;20410;-83
2021/01/27 05:10:56;;;;;;;11.80;8.95;;;2.00;72.10;3.20;100492.00;;;;5053887;28;20847;-83
2021/01/27 05:13:31;;;;;;;10.55;9.13;;;2.10;72.20;3.20;100516.00;;;;5050450;28;20497;-83
2021/01/27 05:16:02;;;;;;;10.57;9.30;;;2.00;72.10;3.20;100484.00;;;;5050023;28;20438;-84
2021/01/27 05:18:30;;;;;;;10.05;8.48;;;2.10;72.20;3.20;100500.00;;;;5050704;28;20436;-84
2021/01/27 05:20:57;;;;;;;10.10;8.43;;;2.00;72.10;3.20;100494.00;;;;5066942;28;20434;-83
2021/01/27 05:23:25;;;;;;;10.68;9.00;;;2.00;72.10;3.20;100496.00;;;;5054981;28;20440;-84
2021/01/27 05:26:04;;;;;;;11.65;8.55;;;2.20;72.30;3.30;100501.00;;;;5043323;28;21059;-84
2021/01/27 05:28:36;;;;;;;10.23;9.15;;;2.10;72.20;3.30;66971.00;;;;5050928;28;20428;-84
2021/01/27 05:31:04;;;;;;;10.77;9.15;;;2.10;72.20;3.40;100484.00;;;;5037875;28;20469;-84
2021/01/27 05:33:47;;;;;;;10.63;8.77;;;2.10;72.20;3.40;100500.00;;;;5035620;28;20422;-84
2021/01/27 05:36:18;;;;;;;13.68;9.50;;;2.10;72.20;3.50;100484.00;;;;5034808;28;20415;-84
2021/01/27 05:38:46;;;;;;;12.13;9.40;;;2.10;73.00;3.40;100477.00;;;;5024657;28;20497;-84
2021/01/27 05:41:21;;;;;;;11.93;9.52;;;2.10;72.80;3.40;100476.00;;;;5034513;28;20480;-84
2021/01/27 05:43:52;;;;;;;11.80;9.85;;;2.20;72.10;3.50;67027.00;;;;5033714;28;20427;-84
2021/01/27 05:46:30;;;;;;;12.10;9.23;;;2.40;72.10;3.40;100469.00;;;;5031816;28;20450;-84
2021/01/27 05:48:58;;;;;;;12.07;9.18;;;2.20;71.50;3.40;100475.00;;;;5027564;28;20463;-84
2021/01/27 05:51:32;;;;;;;12.50;9.30;;;2.30;72.40;3.50;100463.00;;;;5032515;28;20465;-84
2021/01/27 05:54:02;;;;;;;11.15;8.85;;;2.20;71.30;3.40;100459.00;;;;5048675;28;20431;-84
2021/01/27 05:56:30;;;;;;;10.95;9.00;;;2.20;71.40;3.50;100457.00;;;;5031718;28;20521;-84
2021/01/27 05:59:02;;;;;;;10.90;8.70;;;2.20;71.70;3.40;100475.00;;;;5032008;28;20474;-84
2021/01/27 06:01:38;;;;;;;12.35;8.85;;;2.30;71.00;3.60;100488.00;;;;5026560;28;20788;-84
2021/01/27 06:04:23;;;;;;;11.07;9.68;;;2.30;71.50;3.70;100486.00;;;;5034326;28;21130;-85
2021/01/27 06:07:02;;;;;;;10.95;8.60;;;2.30;71.40;3.80;100478.00;;;;5023844;28;20425;-84
2021/01/27 06:09:36;;;;;;;11.90;9.18;;;2.40;71.70;217.30;158344.00;;;;5029955;28;20497;-85
2021/01/27 06:12:07;;;;;;;10.85;9.50;;;2.40;71.50;3.90;100444.00;;;;5031489;28;20433;-85
2021/01/27 06:14:35;;;;;;;13.48;9.02;;;2.50;71.00;3.80;100450.00;;;;5024381;28;20434;-82
2021/01/27 06:17:23;;;;;;;10.85;9.25;;;2.50;70.80;3.70;100429.00;;;;5032425;28;20506;-82
2021/01/27 06:20:01;;;;;;;9.77;8.77;;;2.50;70.90;3.60;100444.00;;;;5036136;28;20464;-84
2021/01/27 06:22:56;;;;;;;11.85;9.13;;;2.40;71.40;3.50;100216.00;;;;5050569;28;20465;-83
2021/01/27 06:25:35;;;;;;;11.20;9.30;;;2.30;71.70;3.50;100442.00;;;;5029660;28;20454;-84
2021/01/27 06:28:21;;;;;;;10.60;9.45;;;2.40;72.40;3.40;100421.00;;;;5029911;28;20457;-83
2021/01/27 06:31:11;;;;;;;11.00;9.30;;;2.20;72.90;3.40;100419.00;;;;5022991;28;21098;-83
2021/01/27 06:33:59;;;;;;;11.10;9.40;;;2.20;73.90;3.40;100427.00;;;;5030720;28;21520;-84
2021/01/27 06:36:58;;;;;;;11.88;9.10;;;2.20;74.20;3.40;100430.00;;;;5025313;28;20423;-83
2021/01/27 06:39:57;;;;;;;11.07;9.77;;;2.10;75.00;3.30;100432.00;;;;5032670;28;20476;-84
2021/01/27 06:42:47;;;;;;;11.50;10.20;;;2.10;75.50;3.10;100435.00;;;;5053017;28;20425;-83
2021/01/27 06:45:25;;;;;;;14.05;10.18;;;2.10;75.90;3.10;100436.00;;;;5048679;28;20453;-83
2021/01/27 06:48:27;;;;;;;13.18;9.82;;;2.10;76.80;3.10;100429.00;;;;5051999;28;20488;-82
2021/01/27 06:51:44;;;;;;;12.25;9.85;;;2.00;77.10;3.10;100438.00;;;;5037624;28;20777;-83
2021/01/27 06:54:43;;;;;;;11.47;9.40;;;2.00;77.50;3.10;100439.00;;;;5035269;28;20426;-84
2021/01/27 06:57:19;;;;;;;13.70;10.38;;;2.10;77.80;3.30;100432.00;;;;5033730;28;20912;-84
2021/01/27 07:00:26;;;;;;;12.32;9.90;;;2.10;78.00;3.30;100438.00;;;;5032737;28;20431;-85
2021/01/27 07:03:53;;;;;;;13.15;10.50;;;2.10;77.90;3.40;100442.00;;;;5049138;28;20427;-84
2021/01/27 07:07:10;;;;;;;11.10;9.90;;;2.20;77.60;3.50;100444.00;;;;5016439;28;20493;-85
2021/01/27 07:10:12;;;;;;;13.00;10.73;;;2.20;77.70;3.60;100437.00;;;;5033709;28;20426;-85
2021/01/27 07:12:43;;;;;;;13.20;10.30;;;2.20;77.80;3.60;100441.00;;;;5046704;28;20462;-85
2021/01/27 07:15:51;;;;;;;13.50;10.90;;;2.30;78.20;3.60;100445.00;;;;5034053;28;20493;-83
2021/01/27 07:18:58;;;;;;;13.45;10.70;;;2.20;78.30;3.50;100448.00;;;;5030999;28;20431;-84
2021/01/27 07:21:32;;;;;;;14.77;11.23;;;2.20;78.70;3.50;100447.00;;;;5031240;28;20427;-84
2021/01/27 07:24:07;;;;;;;16.10;11.70;;;2.20;79.80;3.60;100432.00;;;;5030424;28;20414;-83
2021/01/27 07:26:42;;;;;;;13.55;11.48;;;2.20;79.60;3.50;100416.00;;;;5027926;28;20426;-84
2021/01/27 07:29:15;;;;;;;14.00;11.93;;;2.20;80.00;3.50;100450.00;;;;5031531;28;20492;-83
2021/01/27 07:31:52;;;;;;;18.23;12.10;;;2.30;80.10;3.60;100455.00;;;;5028780;28;20582;-84
2021/01/27 07:34:32;;;;;;;15.82;11.90;;;2.30;80.40;3.60;67045.00;;;;5023807;28;20465;-84
2021/01/27 07:37:12;;;;;;;15.07;11.50;;;2.30;80.20;3.60;100439.00;;;;5033986;28;20466;-83
2021/01/27 07:39:51;;;;;;;15.48;11.70;;;2.30;80.40;3.60;100446.00;;;;5031035;28;20518;-85
2021/01/27 07:42:26;;;;;;;16.58;11.70;;;2.40;80.10;3.60;100430.00;;;;5025762;28;20432;-83
2021/01/27 07:44:59;;;;;;;18.25;12.15;;;2.30;80.50;3.70;100430.00;;;;5033950;28;20974;-85
2021/01/27 07:47:46;;;;;;;14.27;11.50;;;2.40;80.60;3.70;100424.00;;;;5021625;28;20442;-85
2021/01/27 07:50:19;;;;;;;19.30;13.15;;;2.40;80.50;3.70;100423.00;;;;5031821;28;20427;-85
2021/01/27 07:53:14;;;;;;;15.07;12.50;;;2.40;80.80;3.60;100435.00;;;;5036089;28;20426;-87
2021/01/27 07:55:54;;;;;;;20.08;14.40;;;2.40;81.20;3.60;100421.00;;;;5036288;28;20419;-84
2021/01/27 07:58:30;;;;;;;18.05;12.95;;;2.30;81.10;3.70;100408.00;;;;5041549;28;20427;-83
2021/01/27 08:01:04;;;;;;;18.43;12.90;;;2.40;81.30;3.70;100426.00;;;;5040209;28;20499;-83
2021/01/27 08:03:52;;;;;;;17.73;12.93;;;2.40;81.60;3.70;100448.00;;;;5043536;28;20415;-83
2021/01/27 08:06:24;;;;;;;15.57;12.20;;;2.50;81.90;3.70;100418.00;;;;5032734;28;20435;-84
2021/01/27 08:08:56;;;;;;;17.13;13.52;;;2.50;81.60;3.70;100412.00;;;;5018966;28;20430;-84
2021/01/27 08:11:34;;;;;;;16.15;12.52;;;2.40;81.60;3.70;67074.00;;;;5048034;28;20423;-84
2021/01/27 08:14:04;;;;;;;15.80;12.88;;;2.40;82.10;3.70;67080.00;;;;5066150;28;20457;-85
2021/01/27 08:16:38;;;;;;;19.10;13.90;;;2.40;82.40;3.80;100400.00;;;;5047809;28;20420;-85
2021/01/27 08:19:30;;;;;;;21.47;13.80;;;2.40;82.60;3.80;100397.00;;;;5034911;28;20469;-85
2021/01/27 08:22:04;;;;;;;18.92;12.88;;;2.40;82.50;3.80;100392.00;;;;5036691;28;20517;-86
2021/01/27 08:24:56;;;;;;;20.73;13.90;;;2.50;82.30;3.70;100385.00;;;;5045116;28;20443;-85
2021/01/27 08:27:38;;;;;;;19.37;13.33;;;2.60;82.30;3.70;100374.00;;;;5029181;28;20426;-85
2021/01/27 08:30:25;;;;;;;19.88;13.05;;;2.50;82.60;3.70;100369.00;;;;5029332;28;20430;-86
2021/01/27 08:33:41;;;;;;;19.85;12.95;;;2.50;82.60;3.70;100372.00;;;;5029891;28;20473;-85
2021/01/27 08:36:13;;;;;;;19.58;13.30;;;2.50;82.60;3.60;100373.00;;;;5027042;28;20972;-85
2021/01/27 08:38:45;;;;;;;17.75;12.73;;;2.50;82.50;3.60;100365.00;;;;5022563;28;20469;-85
2021/01/27 08:41:46;;;;;;;18.38;12.35;;;2.50;82.80;3.70;100358.00;;;;5027807;28;20435;-85
2021/01/27 08:44:31;;;;;;;14.07;11.85;;;2.50;83.00;3.80;100356.00;;;;5030175;28;20462;-84
2021/01/27 08:47:01;;;;;;;16.73;11.97;;;2.60;82.60;3.70;100357.00;;;;5029668;28;20437;-85
2021/01/27 08:49:52;;;;;;;19.55;12.35;;;2.60;82.40;3.80;67091.00;;;;5044225;28;20466;-85
2021/01/27 08:52:42;;;;;;;18.20;11.48;;;2.70;82.40;217.30;158318.00;;;;5029073;28;20514;-85
2021/01/27 08:55:54;;;;;;;17.85;11.52;;;2.70;82.10;3.90;100368.00;;;;5022714;28;20444;-86
2021/01/27 08:58:45;;;;;;;14.63;10.88;;;2.70;82.50;3.90;100348.00;;;;5022648;28;20970;-86
2021/01/27 09:01:52;;;;;;;14.38;10.38;;;2.80;82.70;4.00;100331.00;;;;5028682;28;20843;-85
2021/01/27 09:04:36;;;;;;;16.80;11.02;;;2.80;82.20;4.00;100342.00;;;;5049881;28;20448;-85
2021/01/27 09:07:08;;;;;;;16.75;10.35;;;2.80;81.90;217.30;158382.00;;;;5036211;28;20422;-85
2021/01/27 09:09:39;;;;;;;15.57;10.43;;;2.80;81.80;4.00;100351.00;;;;5031282;28;20419;-85
2021/01/27 09:12:10;;;;;;;17.95;10.40;;;2.80;81.70;4.00;100335.00;;;;5025381;28;20419;-82
2021/01/27 09:14:38;;;;;;;13.20;10.10;;;2.80;81.50;4.00;100347.00;;;;5031467;28;20427;-85
2021/01/27 09:17:07;;;;;;;13.85;9.80;;;2.90;81.60;4.00;100335.00;;;;5024013;28;20427;-86
2021/01/27 09:19:39;;;;;;;13.98;10.40;;;2.90;81.60;4.10;100356.00;;;;5029435;28;20558;-87
2021/01/27 09:22:23;;;;;;;14.38;9.70;;;2.90;82.00;4.20;100352.00;;;;5037078;28;20427;-87
2021/01/27 09:24:52;;;;;;;12.48;8.82;;;3.00;82.10;4.20;100349.00;;;;5032204;28;20423;-84
2021/01/27 09:27:25;;;;;;;15.30;10.20;;;3.10;81.80;4.10;100338.00;;;;5022315;28;20473;-85
2021/01/27 09:29:59;;;;;;;10.02;8.77;;;3.00;81.70;4.00;67137.00;;;;5028944;28;20484;-85
2021/01/27 09:32:29;;;;;;;12.60;9.27;;;2.90;81.50;217.30;158344.00;;;;5029889;28;20451;-85
2021/01/27 09:35:11;;;;;;;12.98;9.88;;;2.90;81.60;3.80;100339.00;;;;5032984;28;20456;-84
2021/01/27 09:37:52;;;;;;;13.02;10.27;;;2.80;81.60;3.70;100340.00;;;;5033866;28;20430;-84
2021/01/27 09:40:30;;;;;;;12.82;11.45;;;2.70;82.60;52.70;158231.00;;;;5035386;28;20437;-84
2021/01/27 09:43:08;;;;;;;15.88;11.90;;;2.60;82.90;3.50;100323.00;;;;5038020;28;20449;-84
2021/01/27 09:45:40;;;;;;;13.18;11.82;;;2.50;83.40;3.40;100333.00;;;;5032793;28;20419;-86
2021/01/27 09:48:11;;;;;;;14.73;12.88;;;2.40;84.10;3.30;100363.00;;;;5054717;28;20430;-87
2021/01/27 09:50:41;;;;;;;14.18;12.75;;;2.40;84.40;3.30;100352.00;;;;5051387;28;20435;-86
2021/01/27 09:53:25;;;;;;;15.55;12.95;;;2.30;85.00;3.40;100372.00;;;;5053343;28;20847;-85
2021/01/27 09:55:54;;;;;;;16.45;12.57;;;2.40;85.10;3.40;100370.00;;;;5054641;28;20434;-86
2021/01/27 09:58:23;;;;;;;16.15;12.93;;;2.40;84.70;3.40;100344.00;;;;5052373;28;20538;-86
2021/01/27 10:00:51;;;;;;;16.90;13.10;;;2.40;85.10;3.60;67040.00;;;;5054579;28;20430;-81
2021/01/27 10:03:28;;;;;;;14.30;12.80;;;2.40;85.30;3.50;100344.00;;;;5055342;28;20445;-82
2021/01/27 10:05:57;;;;;;;14.10;12.70;;;2.40;85.10;3.40;100337.00;;;;5050114;28;20439;-85
2021/01/27 10:08:28;;;;;;;16.92;12.35;;;2.40;85.00;3.40;100343.00;;;;5043917;28;20446;-84
2021/01/27 10:11:29;;;;;;;14.27;11.80;;;2.30;85.00;3.50;100335.00;;;;5043238;28;20469;-83
2021/01/27 10:14:05;;;;;;;12.43;11.13;;;2.40;85.50;3.60;100312.00;;;;5044918;28;20437;-85
2021/01/27 10:16:33;;;;;;;14.00;12.02;;;2.50;85.20;3.60;100303.00;;;;5039550;28;20446;-84
2021/01/27 10:19:05;;;;;;;13.20;11.90;;;2.50;85.20;3.70;100321.00;;;;5040161;28;20433;-85
2021/01/27 10:21:44;;;;;;;13.15;10.48;;;2.60;85.40;3.90;100325.00;;;;5034705;28;20418;-85
2021/01/27 10:24:33;;;;;;;15.05;10.00;;;2.70;85.20;4.00;100315.00;;;;5036236;28;20426;-85
2021/01/27 10:27:03;;;;;;;12.80;10.20;;;2.70;85.20;4.00;100335.00;;;;5038155;28;20427;-84
2021/01/27 10:29:37;;;;;;;12.63;8.70;;;2.70;84.60;3.90;100336.00;;;;5036155;28;20483;-85
2021/01/27 10:32:36;;;;;;;9.20;8.17;;;2.70;84.30;3.90;67118.00;;;;5027256;28;20422;-84
2021/01/27 10:35:32;;;;;;;8.93;7.97;;;2.80;84.70;3.90;100326.00;;;;5035695;28;20430;-86
2021/01/27 10:38:24;;;;;;;10.48;8.27;;;2.70;84.40;3.80;100351.00;;;;5035738;28;20430;-84
2021/01/27 10:41:12;;;;;;;8.40;7.50;;;2.60;84.40;3.70;67071.00;;;;5049205;28;20427;-86
2021/01/27 10:43:40;;;;;;;8.40;7.50;;;2.60;84.20;3.60;100354.00;;;;5028823;28;20423;-85
2021/01/27 10:46:31;;;;;;;9.38;7.40;;;2.70;84.50;3.50;100349.00;;;;5052094;28;20457;-86
2021/01/27 10:49:00;;;;;;;11.23;8.43;;;2.50;84.40;3.60;100349.00;;;;5034055;28;20435;-86
2021/01/27 10:51:28;;;;;;;10.52;8.30;;;2.50;85.20;3.70;100348.00;;;;5024526;28;20448;-85
2021/01/27 10:53:56;;;;;;;10.23;7.90;;;2.60;85.00;3.70;100339.00;;;;5036254;28;20442;-86
2021/01/27 10:56:24;;;;;;;11.45;7.57;;;2.60;84.40;3.80;67074.00;;;;5041481;28;20415;-84
2021/01/27 10:58:51;;;;;;;9.45;7.95;;;2.70;84.40;3.90;100315.00;;;;5045433;28;20419;-86
2021/01/27 11:01:19;;;;;;;10.10;7.70;;;2.80;84.70;4.10;100289.00;;;;5038602;28;20430;-85
2021/01/27 11:03:47;;;;;;;9.88;7.65;;;2.90;83.70;4.20;100292.00;;;;5028491;28;20431;-84
2021/01/27 11:06:15;;;;;;;11.93;8.13;;;3.10;83.30;4.50;100297.00;;;;5032386;28;20943;-84
2021/01/27 11:08:45;;;;;;;9.00;7.07;;;3.30;82.60;4.50;100279.00;;;;5034646;28;20429;-85
2021/01/27 11:11:13;;;;;;;9.05;8.13;;;3.30;81.30;4.60;100281.00;;;;5033527;28;20431;-85
2021/01/27 11:13:41;;;;;;;9.40;8.40;;;3.40;81.50;4.90;100296.00;;;;5042407;28;20430;-85
2021/01/27 11:16:10;;;;;;;8.32;7.53;;;3.50;80.60;4.80;100287.00;;;;5034006;28;20453;-85
2021/01/27 11:18:39;;;;;;;10.00;9.00;;;3.50;80.00;4.50;100282.00;;;;5034256;28;20515;-85
2021/01/27 11:21:08;;;;;;;10.20;9.20;;;3.30;80.00;4.30;100285.00;;;;5035958;28;20497;-85
2021/01/27 11:23:36;;;;;;;12.93;10.70;;;3.20;80.70;4.20;100274.00;;;;5029301;28;20476;-85
2021/01/27 11:26:04;;;;;;;11.50;10.30;;;3.10;81.80;4.10;100268.00;;;;5031433;28;20458;-86
2021/01/27 11:28:32;;;;;;;14.00;10.65;;;2.90;81.60;4.10;100258.00;;;;5034471;28;20446;-85
2021/01/27 11:31:00;;;;;;;11.25;10.15;;;2.90;82.40;4.00;100259.00;;;;5025889;28;20426;-84